KAL652 VTBS-RKSI
Flight info
| Callsign | KAL652 |
|---|---|
| Flight time | N/A |
| Altitude | 33000 |
| Route | LIPLI Y16 BUTRA A1 IKELA/N0489F350 DCT MORTU DCT NOBAD DCT ENVAR/N0486F370 M750 ANLOT B1 APU DCT DRAKE Q11 WP900 L4 LIPLO Y741 ATOTI Y722 KAMIT/N0472F330 Y722 OLMEN |
| Aircraft | B77W/H-SDE2FGHIJ3J5M1P2RWXYZ/LB1D1 |
Departure
| Time | N/A |
|---|---|
| Airport | Suvarnabhumi Airport (VTBS) |
Arrival
| Time | 2026-05-03 21:18 |
|---|---|
| Airport | Incheon International Airport (RKSI) |
| Time | Latitude | Longitude | Altitude | Speed | Heading |
|---|---|---|---|---|---|
| 2026-05-03 20:15 | 30.39555 | 125.35899 | 37052 ft | 524 kts | 9° |
| 2026-05-03 20:15 | 30.46447 | 125.38737 | 37052 ft | 531 kts | 9° |
| 2026-05-03 20:16 | 30.53396 | 125.41608 | 37051 ft | 525 kts | 8° |
| 2026-05-03 20:16 | 30.60308 | 125.44462 | 37051 ft | 534 kts | 9° |
| 2026-05-03 20:17 | 30.67236 | 125.47335 | 37046 ft | 527 kts | 9° |
| 2026-05-03 20:17 | 30.74212 | 125.50224 | 37057 ft | 534 kts | 9° |
| 2026-05-03 20:18 | 30.81179 | 125.53119 | 37052 ft | 533 kts | 9° |
| 2026-05-03 20:18 | 30.88187 | 125.56036 | 37056 ft | 531 kts | 8° |
| 2026-05-03 20:19 | 30.95174 | 125.58945 | 37060 ft | 537 kts | 9° |
| 2026-05-03 20:19 | 31.02226 | 125.61889 | 37056 ft | 535 kts | 8° |
| 2026-05-03 20:20 | 31.09255 | 125.64827 | 37056 ft | 539 kts | 8° |
| 2026-05-03 20:20 | 31.16266 | 125.67765 | 37012 ft | 533 kts | 9° |
| 2026-05-03 20:21 | 31.23302 | 125.70712 | 37016 ft | 536 kts | 9° |
| 2026-05-03 20:21 | 31.30267 | 125.73640 | 37015 ft | 536 kts | 9° |
| 2026-05-03 20:22 | 31.37286 | 125.76592 | 37018 ft | 537 kts | 9° |
| 2026-05-03 20:22 | 31.44380 | 125.79578 | 37012 ft | 536 kts | 9° |
| 2026-05-03 20:23 | 31.51369 | 125.82531 | 37016 ft | 536 kts | 9° |
| 2026-05-03 20:23 | 31.58414 | 125.85505 | 37015 ft | 536 kts | 8° |
| 2026-05-03 20:24 | 31.65387 | 125.88442 | 37018 ft | 536 kts | 8° |
| 2026-05-03 20:24 | 31.72444 | 125.91406 | 37016 ft | 540 kts | 9° |
| 2026-05-03 20:25 | 31.79485 | 125.94377 | 37021 ft | 535 kts | 9° |
| 2026-05-03 20:25 | 31.86558 | 125.97358 | 37022 ft | 541 kts | 9° |
| 2026-05-03 20:26 | 31.93593 | 126.00339 | 37016 ft | 532 kts | 8° |
| 2026-05-03 20:26 | 32.00644 | 126.03320 | 37022 ft | 539 kts | 8° |
| 2026-05-03 20:27 | 32.07685 | 126.06309 | 37017 ft | 537 kts | 8° |
| 2026-05-03 20:27 | 32.14715 | 126.09287 | 37003 ft | 537 kts | 8° |
| 2026-05-03 20:28 | 32.21766 | 126.12275 | 36999 ft | 538 kts | 8° |
| 2026-05-03 20:28 | 32.28750 | 126.15245 | 36998 ft | 536 kts | 8° |
| 2026-05-03 20:29 | 32.35742 | 126.18221 | 36998 ft | 532 kts | 7° |
| 2026-05-03 20:29 | 32.42747 | 126.21201 | 36999 ft | 542 kts | 7° |
| 2026-05-03 20:30 | 32.49821 | 126.24228 | 36997 ft | 533 kts | 7° |
| 2026-05-03 20:30 | 32.56823 | 126.27216 | 36998 ft | 543 kts | 8° |
| 2026-05-03 20:31 | 32.63930 | 126.30267 | 36996 ft | 542 kts | 7° |
| 2026-05-03 20:31 | 32.71025 | 126.33318 | 36999 ft | 544 kts | 8° |
| 2026-05-03 20:32 | 32.78094 | 126.36365 | 37001 ft | 538 kts | 7° |
| 2026-05-03 20:32 | 32.85101 | 126.39387 | 36991 ft | 538 kts | 7° |
| 2026-05-03 20:33 | 32.92191 | 126.42446 | 36990 ft | 541 kts | 7° |
| 2026-05-03 20:33 | 32.99245 | 126.45499 | 36998 ft | 543 kts | 7° |
| 2026-05-03 20:34 | 33.06387 | 126.48575 | 36998 ft | 543 kts | 7° |
| 2026-05-03 20:34 | 33.13418 | 126.51601 | 36976 ft | 541 kts | 7° |
| 2026-05-03 20:35 | 33.20520 | 126.54658 | 36978 ft | 542 kts | 7° |
| 2026-05-03 20:35 | 33.27732 | 126.57761 | 36977 ft | 556 kts | 7° |
| 2026-05-03 20:36 | 33.34980 | 126.60899 | 36980 ft | 554 kts | 7° |
| 2026-05-03 20:36 | 33.42225 | 126.64043 | 36977 ft | 555 kts | 7° |
| 2026-05-03 20:37 | 33.49511 | 126.67220 | 36961 ft | 559 kts | 8° |
| 2026-05-03 20:37 | 33.56807 | 126.69801 | 36956 ft | 535 kts | 356° |
| 2026-05-03 20:38 | 33.64179 | 126.70747 | 36949 ft | 526 kts | 350° |
| 2026-05-03 20:38 | 33.71439 | 126.71506 | 36956 ft | 525 kts | 350° |
| 2026-05-03 20:39 | 33.78683 | 126.72265 | 36962 ft | 523 kts | 350° |
| 2026-05-03 20:39 | 33.85920 | 126.73025 | 36953 ft | 523 kts | 350° |
| 2026-05-03 20:40 | 33.93182 | 126.73785 | 36956 ft | 526 kts | 350° |
| 2026-05-03 20:40 | 34.00432 | 126.74542 | 36780 ft | 527 kts | 350° |
| 2026-05-03 20:40 | 34.04110 | 126.74921 | 36508 ft | 529 kts | 350° |
| 2026-05-03 20:41 | 34.07740 | 126.75307 | 36220 ft | 523 kts | 350° |
| 2026-05-03 20:41 | 34.11371 | 126.75690 | 35934 ft | 522 kts | 350° |
| 2026-05-03 20:41 | 34.14983 | 126.76068 | 35638 ft | 523 kts | 350° |
| 2026-05-03 20:41 | 34.18668 | 126.76447 | 35326 ft | 532 kts | 350° |
| 2026-05-03 20:42 | 34.22336 | 126.76830 | 35032 ft | 531 kts | 350° |
| 2026-05-03 20:42 | 34.25998 | 126.77222 | 34745 ft | 526 kts | 350° |
| 2026-05-03 20:42 | 34.29622 | 126.77603 | 34453 ft | 532 kts | 350° |
| 2026-05-03 20:42 | 34.33355 | 126.77996 | 34166 ft | 535 kts | 350° |
| 2026-05-03 20:43 | 34.37056 | 126.78394 | 33882 ft | 530 kts | 350° |
| 2026-05-03 20:43 | 34.40711 | 126.78786 | 33600 ft | 528 kts | 350° |
| 2026-05-03 20:43 | 34.44348 | 126.79174 | 33328 ft | 528 kts | 350° |
| 2026-05-03 20:43 | 34.48058 | 126.79562 | 33058 ft | 539 kts | 350° |
| 2026-05-03 20:44 | 34.51769 | 126.79959 | 32932 ft | 533 kts | 350° |
| 2026-05-03 20:44 | 34.55420 | 126.80362 | 32939 ft | 521 kts | 349° |
| 2026-05-03 20:44 | 34.59048 | 126.80746 | 32934 ft | 529 kts | 349° |
| 2026-05-03 20:45 | 34.66396 | 126.81525 | 32933 ft | 533 kts | 349° |
| 2026-05-03 20:45 | 34.73746 | 126.82317 | 32933 ft | 528 kts | 349° |
| 2026-05-03 20:46 | 34.81052 | 126.83103 | 32928 ft | 528 kts | 349° |
| 2026-05-03 20:46 | 34.88318 | 126.83887 | 32926 ft | 523 kts | 349° |
| 2026-05-03 20:47 | 34.95571 | 126.84666 | 32916 ft | 523 kts | 349° |
| 2026-05-03 20:47 | 35.02838 | 126.85447 | 32908 ft | 526 kts | 349° |
| 2026-05-03 20:48 | 35.10178 | 126.86238 | 32900 ft | 529 kts | 349° |
| 2026-05-03 20:48 | 35.17444 | 126.87036 | 32894 ft | 521 kts | 349° |
| 2026-05-03 20:49 | 35.24709 | 126.87818 | 32877 ft | 524 kts | 350° |
| 2026-05-03 20:49 | 35.31958 | 126.88612 | 32897 ft | 519 kts | 350° |
| 2026-05-03 20:50 | 35.39220 | 126.89398 | 32881 ft | 524 kts | 351° |
| 2026-05-03 20:50 | 35.46462 | 126.90188 | 32893 ft | 526 kts | 351° |
| 2026-05-03 20:51 | 35.52286 | 126.90826 | 32890 ft | 522 kts | 351° |
| 2026-05-03 20:51 | 35.59477 | 126.91615 | 32875 ft | 522 kts | 351° |
| 2026-05-03 20:52 | 35.66817 | 126.92413 | 32854 ft | 525 kts | 352° |
| 2026-05-03 20:52 | 35.74001 | 126.93209 | 32886 ft | 519 kts | 351° |
| 2026-05-03 20:53 | 35.81152 | 126.93999 | 32705 ft | 509 kts | 352° |
| 2026-05-03 20:53 | 35.84661 | 126.94391 | 32125 ft | 504 kts | 352° |
| 2026-05-03 20:53 | 35.88099 | 126.94772 | 31606 ft | 499 kts | 351° |
| 2026-05-03 20:53 | 35.91542 | 126.95153 | 31077 ft | 493 kts | 351° |
| 2026-05-03 20:54 | 35.94943 | 126.95535 | 30545 ft | 488 kts | 351° |
| 2026-05-03 20:54 | 36.01657 | 126.96275 | 29475 ft | 480 kts | 351° |
| 2026-05-03 20:54 | 36.04960 | 126.96639 | 28934 ft | 477 kts | 351° |
| 2026-05-03 20:55 | 36.08226 | 126.96997 | 28398 ft | 473 kts | 351° |
| 2026-05-03 20:55 | 36.11522 | 126.97369 | 27835 ft | 471 kts | 352° |
| 2026-05-03 20:55 | 36.14735 | 126.97731 | 27290 ft | 467 kts | 352° |
| 2026-05-03 20:55 | 36.17985 | 126.98077 | 26722 ft | 464 kts | 352° |
| 2026-05-03 20:56 | 36.21216 | 126.98435 | 26139 ft | 462 kts | 353° |
| 2026-05-03 20:56 | 36.24365 | 126.98789 | 25606 ft | 459 kts | 354° |
| 2026-05-03 20:56 | 36.27531 | 126.99136 | 25028 ft | 456 kts | 354° |
| 2026-05-03 20:56 | 36.30710 | 126.99490 | 24478 ft | 453 kts | 354° |
| 2026-05-03 20:57 | 36.33835 | 126.99837 | 23846 ft | 451 kts | 355° |
| 2026-05-03 20:57 | 36.36941 | 127.00187 | 23316 ft | 447 kts | 355° |
| 2026-05-03 20:57 | 36.39980 | 127.00337 | 22750 ft | 436 kts | 350° |
| 2026-05-03 20:57 | 36.42989 | 127.00243 | 22142 ft | 431 kts | 349° |
| 2026-05-03 20:58 | 36.45937 | 127.00130 | 21519 ft | 416 kts | 350° |
| 2026-05-03 20:58 | 36.48765 | 127.00029 | 20999 ft | 398 kts | 351° |
| 2026-05-03 20:58 | 36.51490 | 126.99932 | 20445 ft | 384 kts | 352° |
| 2026-05-03 20:58 | 36.54098 | 126.99850 | 19905 ft | 369 kts | 352° |
| 2026-05-03 20:59 | 36.56619 | 126.99757 | 19348 ft | 357 kts | 353° |
| 2026-05-03 20:59 | 36.59029 | 126.99719 | 18850 ft | 343 kts | 353° |
| 2026-05-03 20:59 | 36.61367 | 126.99638 | 18366 ft | 330 kts | 352° |
| 2026-05-03 20:59 | 36.63650 | 126.99496 | 17428 ft | 331 kts | 352° |
| 2026-05-03 21:00 | 36.65961 | 126.99384 | 16318 ft | 336 kts | 353° |
| 2026-05-03 21:00 | 36.67514 | 126.99323 | 15780 ft | 331 kts | 353° |
| 2026-05-03 21:00 | 36.70521 | 126.99223 | 14894 ft | 318 kts | 353° |
| 2026-05-03 21:00 | 36.72681 | 126.99107 | 14128 ft | 310 kts | 348° |
| 2026-05-03 21:01 | 36.74741 | 126.98512 | 13307 ft | 299 kts | 336° |
| 2026-05-03 21:01 | 36.76644 | 126.97555 | 12427 ft | 295 kts | 334° |
| 2026-05-03 21:01 | 36.78486 | 126.96586 | 11601 ft | 289 kts | 334° |
| 2026-05-03 21:01 | 36.80337 | 126.95608 | 10803 ft | 283 kts | 334° |
| 2026-05-03 21:02 | 36.82109 | 126.94672 | 10192 ft | 277 kts | 334° |
| 2026-05-03 21:02 | 36.83896 | 126.93733 | 9971 ft | 276 kts | 334° |
| 2026-05-03 21:02 | 36.85635 | 126.92815 | 9958 ft | 263 kts | 334° |
| 2026-05-03 21:02 | 36.87266 | 126.91956 | 9956 ft | 247 kts | 334° |
| 2026-05-03 21:03 | 36.88808 | 126.91145 | 9951 ft | 235 kts | 334° |
| 2026-05-03 21:03 | 36.90295 | 126.90355 | 9661 ft | 232 kts | 333° |
| 2026-05-03 21:03 | 36.91687 | 126.89367 | 9236 ft | 232 kts | 322° |
| 2026-05-03 21:03 | 36.92866 | 126.87987 | 8870 ft | 231 kts | 310° |
| 2026-05-03 21:04 | 36.93735 | 126.86343 | 8551 ft | 230 kts | 299° |
| 2026-05-03 21:04 | 36.94283 | 126.84436 | 8186 ft | 233 kts | 288° |
| 2026-05-03 21:04 | 36.94618 | 126.82480 | 7834 ft | 233 kts | 287° |
| 2026-05-03 21:04 | 36.94945 | 126.80494 | 7521 ft | 231 kts | 286° |
| 2026-05-03 21:05 | 36.95260 | 126.78519 | 7151 ft | 232 kts | 286° |
| 2026-05-03 21:05 | 36.95571 | 126.76554 | 6820 ft | 231 kts | 286° |
| 2026-05-03 21:05 | 36.95876 | 126.74606 | 6502 ft | 230 kts | 286° |
| 2026-05-03 21:05 | 36.96180 | 126.72642 | 6154 ft | 230 kts | 286° |
| 2026-05-03 21:06 | 36.96486 | 126.70672 | 5834 ft | 229 kts | 286° |
| 2026-05-03 21:06 | 36.96788 | 126.68736 | 5538 ft | 227 kts | 286° |
| 2026-05-03 21:06 | 36.97090 | 126.66817 | 5198 ft | 227 kts | 286° |
| 2026-05-03 21:06 | 36.97448 | 126.64896 | 4851 ft | 223 kts | 296° |
| 2026-05-03 21:07 | 36.98296 | 126.63324 | 4467 ft | 221 kts | 317° |
| 2026-05-03 21:07 | 36.99603 | 126.62322 | 4143 ft | 221 kts | 336° |
| 2026-05-03 21:07 | 37.01049 | 126.61680 | 3888 ft | 218 kts | 338° |
| 2026-05-03 21:07 | 37.02477 | 126.61065 | 3738 ft | 219 kts | 338° |
| 2026-05-03 21:08 | 37.03897 | 126.60455 | 3577 ft | 211 kts | 338° |
| 2026-05-03 21:08 | 37.05265 | 126.59866 | 3412 ft | 205 kts | 338° |
| 2026-05-03 21:08 | 37.06607 | 126.59290 | 3249 ft | 198 kts | 338° |
| 2026-05-03 21:08 | 37.07890 | 126.58735 | 3088 ft | 193 kts | 338° |
| 2026-05-03 21:09 | 37.09130 | 126.58200 | 2930 ft | 187 kts | 337° |
| 2026-05-03 21:09 | 37.10359 | 126.57681 | 2773 ft | 186 kts | 341° |
| 2026-05-03 21:09 | 37.11689 | 126.57706 | 2605 ft | 198 kts | 9° |
| 2026-05-03 21:09 | 37.13018 | 126.58262 | 2563 ft | 204 kts | 12° |
| 2026-05-03 21:10 | 37.14355 | 126.58853 | 2519 ft | 202 kts | 12° |
| 2026-05-03 21:10 | 37.15689 | 126.59443 | 2334 ft | 203 kts | 12° |
| 2026-05-03 21:10 | 37.17017 | 126.60028 | 2088 ft | 203 kts | 12° |
| 2026-05-03 21:10 | 37.18356 | 126.60614 | 1830 ft | 203 kts | 13° |
| 2026-05-03 21:11 | 37.19663 | 126.61192 | 1714 ft | 198 kts | 13° |
| 2026-05-03 21:11 | 37.20974 | 126.61775 | 1668 ft | 200 kts | 13° |
| 2026-05-03 21:11 | 37.22329 | 126.62188 | 1592 ft | 196 kts | 355° |
| 2026-05-03 21:11 | 37.23621 | 126.61787 | 1567 ft | 193 kts | 330° |
| 2026-05-03 21:12 | 37.24774 | 126.60918 | 1564 ft | 190 kts | 325° |
| 2026-05-03 21:12 | 37.25857 | 126.59984 | 1572 ft | 189 kts | 322° |
| 2026-05-03 21:12 | 37.26915 | 126.58982 | 1583 ft | 188 kts | 322° |
| 2026-05-03 21:12 | 37.27957 | 126.58036 | 1581 ft | 181 kts | 323° |
| 2026-05-03 21:13 | 37.28962 | 126.57152 | 1570 ft | 167 kts | 323° |
| 2026-05-03 21:13 | 37.29874 | 126.56351 | 1580 ft | 158 kts | 323° |
| 2026-05-03 21:13 | 37.30771 | 126.55561 | 1579 ft | 156 kts | 323° |
| 2026-05-03 21:13 | 37.31663 | 126.54781 | 1590 ft | 156 kts | 323° |
| 2026-05-03 21:14 | 37.32562 | 126.53990 | 1581 ft | 155 kts | 323° |
| 2026-05-03 21:14 | 37.33442 | 126.53211 | 1583 ft | 155 kts | 324° |
| 2026-05-03 21:14 | 37.34310 | 126.52446 | 1576 ft | 144 kts | 324° |
| 2026-05-03 21:14 | 37.35104 | 126.51749 | 1583 ft | 137 kts | 324° |
| 2026-05-03 21:15 | 37.35892 | 126.51054 | 1574 ft | 136 kts | 323° |
| 2026-05-03 21:15 | 37.36660 | 126.50378 | 1584 ft | 134 kts | 323° |
| 2026-05-03 21:15 | 37.37432 | 126.49694 | 1580 ft | 136 kts | 324° |
| 2026-05-03 21:15 | 37.38211 | 126.49009 | 1478 ft | 135 kts | 323° |
| 2026-05-03 21:16 | 37.38936 | 126.48364 | 1314 ft | 125 kts | 323° |
| 2026-05-03 21:16 | 37.39643 | 126.47746 | 1153 ft | 122 kts | 322° |
| 2026-05-03 21:16 | 37.40339 | 126.47125 | 988 ft | 123 kts | 322° |
| 2026-05-03 21:16 | 37.41035 | 126.46511 | 819 ft | 125 kts | 322° |
| 2026-05-03 21:17 | 37.41749 | 126.45879 | 649 ft | 126 kts | 322° |
| 2026-05-03 21:17 | 37.42229 | 126.45454 | 529 ft | 126 kts | 321° |
| 2026-05-03 21:17 | 37.43206 | 126.44586 | 287 ft | 129 kts | 322° |
| 2026-05-03 21:17 | 37.43949 | 126.43939 | 121 ft | 131 kts | 323° |
| 2026-05-03 21:18 | 37.44684 | 126.43282 | 36 ft | 118 kts | 321° |
| 2026-05-03 21:18 | 37.45256 | 126.42775 | 35 ft | 83 kts | 324° |
| 2026-05-03 21:18 | 37.45633 | 126.42440 | 35 ft | 44 kts | 324° |
| 2026-05-03 21:18 | 37.45849 | 126.42271 | 35 ft | 33 kts | 339° |
| 2026-05-03 21:19 | 37.46056 | 126.42222 | 35 ft | 27 kts | 354° |
| 2026-05-03 21:19 | 37.46215 | 126.42183 | 35 ft | 21 kts | 332° |
| 2026-05-03 21:19 | 37.46336 | 126.42080 | 35 ft | 20 kts | 325° |
| 2026-05-03 21:19 | 37.46439 | 126.41988 | 35 ft | 11 kts | 325° |
| 2026-05-03 21:20 | 37.46497 | 126.41970 | 35 ft | 8 kts | 32° |
| 2026-05-03 21:20 | 37.46541 | 126.42034 | 35 ft | 10 kts | 56° |
| 2026-05-03 21:20 | 37.46590 | 126.42123 | 35 ft | 13 kts | 56° |
| 2026-05-03 21:20 | 37.46646 | 126.42225 | 35 ft | 14 kts | 55° |
| 2026-05-03 21:21 | 37.46681 | 126.42300 | 35 ft | 9 kts | 82° |
| 2026-05-03 21:21 | 37.46652 | 126.42374 | 35 ft | 10 kts | 140° |
| 2026-05-03 21:21 | 37.46583 | 126.42436 | 35 ft | 13 kts | 145° |
| 2026-05-03 21:21 | 37.46498 | 126.42511 | 35 ft | 16 kts | 145° |
| 2026-05-03 21:22 | 37.46402 | 126.42596 | 35 ft | 16 kts | 145° |
| 2026-05-03 21:22 | 37.46328 | 126.42665 | 35 ft | 10 kts | 133° |
| 2026-05-03 21:22 | 37.46330 | 126.42750 | 35 ft | 11 kts | 58° |
| 2026-05-03 21:22 | 37.46375 | 126.42831 | 35 ft | 11 kts | 55° |
| 2026-05-03 21:23 | 37.46423 | 126.42915 | 35 ft | 11 kts | 56° |
| 2026-05-03 21:23 | 37.46439 | 126.42999 | 35 ft | 10 kts | 82° |
| 2026-05-03 21:23 | 37.46459 | 126.43079 | 35 ft | 7 kts | 67° |
| 2026-05-03 21:23 | 37.46473 | 126.43120 | 35 ft | 2 kts | 68° |
| 2026-05-03 21:24 | 37.46476 | 126.43128 | 35 ft | 0 kts | 67° |